Latest Weather Observations for Kanagulk

IDV60801

Issued at 2:32 pm EDT Sunday 22 January 2017 (issued every 30 minutes, with the page automatically refreshed every 10 minutes)

About weather observations | Map of weather stations | Latest weather observations for VIC | Other Formats
Station Details ID: 079097 Name: KANAGULK Lat: -37.12 Lon: 141.80 Height: 188.8 m
Data from the previous 72 hours. | See also: Recent months at Kanagulk
Date/Time
EDT
Temp
°C
App
Temp
°C
Dew
Point
°C
Rel
Hum
%
Delta-T
°C
Wind Press
QNH
hPa
Press
MSL
hPa
Rain since
9am
mm
Dir  Spd
km/h
Gust
km/h
Spd
kts
Gust
kts
22/02:30pm 31.7 28.5 5.3 19 14.1 NNW 11 33 6 18 1012.0 1011.3 0.0
22/02:00pm 30.8 28.2 6.0 21 13.3 NW 9 19 5 10 1012.6 1011.9 0.0
22/01:30pm 30.2 27.2 6.1 22 12.9 N 11 20 6 11 1012.8 1012.1 0.0
22/01:00pm 29.9 27.4 6.5 23 12.6 NNE 9 20 5 11 1013.3 1012.6 0.0
22/12:30pm 29.1 26.2 6.5 24 12.1 NNW 11 20 6 11 1013.4 1012.7 0.0
22/12:00pm 28.8 25.5 6.2 24 12.0 N 13 19 7 10 1013.6 1012.9 0.0
22/11:30am 27.5 24.7 6.8 27 11.0 NNE 11 19 6 10 1013.8 1013.1 0.0
22/11:00am 27.0 24.4 9.4 33 9.8 NE 13 19 7 10 1014.1 1013.4 0.0
22/10:30am 25.9 24.1 9.3 35 9.2 NE 9 15 5 8 1014.2 1013.5 0.0
22/10:00am 24.4 23.0 11.0 43 7.6 NNE 9 11 5 6 1014.6 1013.9 0.0
22/09:30am 22.0 20.7 11.1 50 6.1 NNE 9 13 5 7 1014.9 1014.2 0.0
22/09:00am 19.7 20.2 11.7 60 4.5 CALM 0 0 0 0 1015.0 1014.3 0.0
22/08:30am 17.4 18.2 12.5 73 2.7 CALM 0 6 0 3 1015.0 1014.3 0.0
22/08:00am 15.6 15.6 12.5 82 1.7 ESE 4 7 2 4 1014.8 1014.1 0.0
22/07:30am 13.2 13.4 11.8 91 0.8 SSE 2 6 1 3 1014.5 1013.8 0.0
22/07:00am 11.1 11.0 10.9 99 0.1 S 2 6 1 3 1014.6 1013.9 0.0
22/06:30am 11.0 10.1 10.8 99 0.1 SE 6 7 3 4 1014.5 1013.8 0.0
22/06:00am 11.5 10.7 11.0 97 0.3 SE 6 7 3 4 1014.5 1013.8 0.0
22/05:30am 11.5 10.4 10.7 95 0.4 ESE 7 9 4 5 1014.5 1013.8 0.0
22/05:00am 11.0 9.7 9.9 93 0.6 SE 7 9 4 5 1014.4 1013.7 0.0
22/04:30am 12.0 11.0 10.9 93 0.6 SE 7 11 4 6 1014.4 1013.7 0.0
22/04:00am 11.6 9.8 10.8 95 0.4 SSE 11 11 6 6 1014.6 1013.9 0.0
22/03:30am 11.6 10.0 10.3 92 0.7 SSE 9 13 5 7 1014.6 1013.9 0.0
22/03:00am 12.0 10.1 10.6 91 0.7 SSE 11 13 6 7 1014.8 1014.1 0.0
22/02:30am 12.7 10.8 10.6 87 1.1 SSE 11 15 6 8 1014.8 1014.1 0.0
22/02:00am 13.5 11.0 11.0 85 1.3 SSE 15 19 8 10 1015.1 1014.4 0.0
22/01:30am 13.8 11.3 11.1 84 1.4 SSE 15 17 8 9 1015.3 1014.6 0.0
22/01:00am 14.5 12.1 11.3 81 1.7 SSE 15 19 8 10 1015.4 1014.7 0.0
22/12:30am 14.6 12.5 11.2 80 1.8 SSE 13 17 7 9 1015.7 1015.0 0.0
22/12:00am 15.7 13.3 11.5 76 2.3 SSE 15 20 8 11 1015.7 1015.0 0.0
 
Date/Time
EDT
Temp
°C
App
Temp
°C
Dew
Point
°C
Rel
Hum
%
Delta-T
°C
Wind Press
QNH
hPa
Press
MSL
hPa
Rain since
9am
mm
Dir  Spd
km/h
Gust
km/h
Spd
kts
Gust
kts
21/11:30pm 16.6 13.6 12.0 74 2.5 SSE 19 28 10 15 1015.8 1015.1 0.0
21/11:00pm 17.5 14.3 11.8 69 3.1 SSE 20 26 11 14 1015.9 1015.2 0.0
21/10:30pm 18.5 15.3 11.3 63 4.0 SSE 19 26 10 14 1015.9 1015.2 0.0
21/10:00pm 19.4 16.6 11.4 60 4.4 SSE 17 24 9 13 1015.4 1014.7 0.0
21/09:30pm 20.1 17.8 11.6 58 4.7 SSE 15 20 8 11 1015.2 1014.5 0.0
21/09:00pm 21.3 17.9 11.3 53 5.6 SSE 20 28 11 15 1014.9 1014.2 0.0
21/08:30pm 23.2 19.8 10.6 45 7.0 SSE 19 26 10 14 1014.5 1013.8 0.0
21/08:00pm 24.3 20.6 9.5 39 8.1 SSE 19 24 10 13 1014.1 1013.4 0.0
21/07:30pm 25.6 22.5 9.0 35 9.1 SSE 15 26 8 14 1014.0 1013.3 0.0
21/07:00pm 25.8 22.6 8.3 33 9.5 SSE 15 20 8 11 1013.7 1013.0 0.0
21/06:30pm 26.2 22.7 7.3 30 10.1 SSE 15 22 8 12 1013.7 1013.0 0.0
21/06:00pm 26.0 22.2 7.6 31 9.9 SSE 17 30 9 16 1013.7 1013.0 0.0
21/05:30pm 26.5 23.7 8.5 32 9.8 S 13 24 7 13 1013.8 1013.1 0.0
21/05:00pm 26.0 23.7 8.9 34 9.4 S 11 20 6 11 1014.0 1013.3 0.0
21/04:30pm 25.8 22.2 8.3 33 9.5 SSE 17 24 9 13 1014.2 1013.5 0.0
21/04:00pm 26.1 23.8 9.0 34 9.4 SE 11 20 6 11 1014.5 1013.8 0.0
21/03:30pm 24.5 21.8 8.9 37 8.5 S 13 19 7 10 1014.6 1013.9 0.0
21/03:00pm 24.4 21.5 8.0 35 8.8 S 13 28 7 15 1014.9 1014.2 0.0
21/02:30pm 23.6 21.5 9.6 41 7.7 SSW 11 26 6 14 1014.9 1014.2 0.0
21/02:00pm 22.9 19.7 8.6 40 7.7 S 15 26 8 14 1015.2 1014.5 0.0
21/01:30pm 22.8 19.1 7.8 38 7.9 SSE 17 26 9 14 1015.3 1014.6 0.0
21/01:00pm 22.2 19.3 8.3 41 7.4 SE 13 20 7 11 1015.6 1014.9 0.0
21/12:30pm 21.9 18.4 7.3 39 7.6 SSW 15 22 8 12 1015.8 1015.1 0.0
21/12:00pm 20.6 17.7 8.3 45 6.5 SE 13 20 7 11 1016.0 1015.3 0.0
21/11:30am 19.7 16.9 8.7 49 5.8 SSE 13 19 7 10 1016.2 1015.5 0.0
21/11:00am 18.4 15.1 8.1 51 5.3 S 15 22 8 12 1016.5 1015.8 0.0
21/10:30am 17.4 15.0 8.8 57 4.5 SSW 11 19 6 10 1016.6 1015.9 0.0
21/10:00am 16.6 14.5 9.8 64 3.6 SSW 11 17 6 9 1016.4 1015.7 0.0
21/09:30am 15.9 14.2 9.8 67 3.2 SW 9 15 5 8 1016.3 1015.6 0.0
21/09:00am 14.4 13.2 10.4 77 2.1 SSW 7 11 4 6 1016.1 1015.4 0.0
21/08:30am 13.2 12.2 11.1 87 1.1 SW 7 11 4 6 1015.8 1015.1 0.0
21/08:00am 11.6 12.0 11.1 97 0.3 CALM 0 0 0 0 1015.4 1014.7 0.0
21/07:30am 9.5 9.4 9.4 99 0.1 CALM 0 0 0 0 1014.9 1014.2 0.0
21/07:00am 8.1 7.6 8.0 99 0.0 CALM 0 0 0 0 1014.4 1013.7 0.0
21/06:30am 8.4 8.0 8.3 99 0.0 CALM 0 0 0 0 1014.0 1013.3 0.0
21/06:00am 8.7 8.4 8.6 99 0.0 CALM 0 0 0 0 1013.8 1013.1 0.0
21/05:30am 9.0 8.8 8.9 99 0.0 CALM 0 0 0 0 1013.6 1012.9 0.0
21/05:00am 9.0 8.7 8.6 97 0.2 CALM 0 4 0 2 1013.2 1012.5 0.0
21/04:30am 9.9 9.3 9.1 95 0.4 WSW 2 7 1 4 1013.2 1012.5 0.0
21/04:00am 10.7 10.8 10.1 96 0.3 CALM 0 0 0 0 1012.9 1012.2 0.0
21/03:30am 10.2 9.3 9.1 93 0.6 SW 4 7 2 4 1012.8 1012.1 0.0
21/03:00am 10.4 9.0 9.0 91 0.7 SW 6 9 3 5 1012.8 1012.1 0.0
21/02:30am 11.1 9.7 9.7 91 0.7 SW 7 11 4 6 1012.9 1012.2 0.0
21/02:00am 10.7 9.2 9.0 89 0.9 SW 7 9 4 5 1012.7 1012.0 0.0
21/01:30am 11.4 9.9 9.1 86 1.2 SSW 7 11 4 6 1012.5 1011.8 0.0
21/01:00am 11.7 9.9 9.3 85 1.2 SSW 9 13 5 7 1012.4 1011.7 0.0
21/12:30am 11.5 9.6 8.9 84 1.3 SSW 9 13 5 7 1012.1 1011.4 0.0
21/12:00am 11.6 9.2 8.5 81 1.5 S 11 15 6 8 1011.9 1011.2 0.0
 
Date/Time
EDT
Temp
°C
App
Temp
°C
Dew
Point
°C
Rel
Hum
%
Delta-T
°C
Wind Press
QNH
hPa
Press
MSL
hPa
Rain since
9am
mm
Dir  Spd
km/h
Gust
km/h
Spd
kts
Gust
kts
20/11:30pm 11.9 9.1 8.4 79 1.7 S 13 17 7 9 1011.6 1010.9 0.0
20/11:00pm 12.3 9.5 8.4 77 2.0 S 13 17 7 9 1011.3 1010.6 0.0
20/10:30pm 12.7 9.5 8.4 75 2.2 S 15 20 8 11 1010.9 1010.2 0.0
20/10:00pm 13.2 10.0 8.5 73 2.4 S 15 20 8 11 1010.7 1010.0 0.0
20/09:30pm 14.0 9.8 8.4 69 2.8 S 20 26 11 14 1010.3 1009.6 0.0
20/09:00pm 14.7 10.7 8.4 66 3.2 S 19 26 10 14 1010.0 1009.3 0.0
20/08:30pm 15.8 11.7 8.8 63 3.6 S 20 28 11 15 1009.5 1008.8 0.0
20/08:00pm 17.2 13.3 8.6 57 4.5 S 19 30 10 16 1008.8 1008.1 0.0
20/07:30pm 18.2 13.7 8.7 54 5.0 SSW 22 30 12 16 1008.1 1007.3 0.0
20/07:00pm 19.1 14.4 9.3 53 5.2 S 24 35 13 19 1007.8 1007.0 0.0
20/06:30pm 19.6 13.7 9.2 51 5.5 S 30 41 16 22 1007.2 1006.5 0.0
20/06:00pm 19.8 14.8 9.4 51 5.6 SSW 26 39 14 21 1007.0 1006.3 0.0
20/05:30pm 20.0 15.1 9.9 52 5.5 SSW 26 37 14 20 1006.6 1005.9 0.0
20/05:00pm 20.5 15.0 9.1 48 6.1 S 28 43 15 23 1006.5 1005.8 0.0
20/04:44pm 21.3 16.0 9.9 48 6.2 S 28 46 15 25 1006.3 1005.6 0.0
20/04:30pm 21.1 15.6 10.6 51 5.8 S 30 39 16 21 1006.2 1005.5 0.0
20/04:02pm 21.5 15.9 10.3 49 6.1 S 30 48 16 26 1005.9 1005.2 0.0
20/04:00pm 21.0 15.2 9.6 48 6.2 S 30 43 16 23 1005.9 1005.2 0.0
20/03:45pm 21.6 16.3 9.8 47 6.4 S 28 46 15 25 1005.7 1005.0 0.0
20/03:30pm 20.4 15.2 9.0 48 6.1 SSW 26 43 14 23 1005.6 1004.9 0.0
20/03:00pm 20.5 15.2 10.0 51 5.7 SSW 28 46 15 25 1005.5 1004.8 0.0
20/02:56pm 20.0 14.6 9.6 51 5.6 SSW 28 46 15 25 1005.4 1004.7 0.0
20/02:30pm 20.3 15.4 9.8 51 5.7 SSW 26 41 14 22 1005.2 1004.5 0.0
20/02:00pm 18.5 13.7 10.3 59 4.4 SSW 26 43 14 23 1005.2 1004.5 0.0
20/01:32pm 18.5 13.5 10.8 61 4.2 SSW 28 46 15 25 1004.8 1004.1 0.0
20/01:30pm 18.6 13.0 10.2 58 4.5 SSW 30 46 16 25 1004.8 1004.1 0.0
20/01:00pm 17.3 11.4 10.4 64 3.7 SSW 32 52 17 28 1004.6 1003.9 0.0
20/12:52pm 19.0 14.4 12.3 65 3.8 SSW 28 52 15 28 1004.4 1003.7 0.0
20/12:30pm 17.1 13.0 11.4 69 3.1 SSW 24 39 13 21 1004.2 1003.5 0.0
20/12:00pm 16.3 11.7 11.2 72 2.8 SSW 26 37 14 20 1003.7 1002.9 0.0
20/11:30am 16.5 11.7 13.0 80 2.0 S 30 39 16 21 1003.1 1002.3 0.0
20/11:00am 14.3 12.0 14.0 98 0.2 SSW 19 24 10 13 1002.7 1001.9 0.0
20/10:30am 14.3 11.2 13.3 94 0.6 SSW 22 33 12 18 1002.2 1001.4 0.0
20/10:00am 14.4 11.4 13.8 96 0.3 SSW 22 35 12 19 1001.6 1000.9 0.0
20/09:30am 14.2 10.8 13.6 96 0.3 SSW 24 35 13 19 1001.1 1000.4 0.0
20/09:00am 14.2 11.7 14.0 99 0.1 SSW 20 30 11 16 1000.4 999.7 20.6
20/08:30am 14.4 11.6 14.2 99 0.1 SSW 22 37 12 20 999.8 999.1 20.6
20/08:00am 14.9 12.2 14.7 99 0.1 SW 22 39 12 21 999.2 998.5 20.6
20/07:30am 14.9 13.6 14.7 99 0.1 WSW 15 26 8 14 998.4 997.6 20.6
20/07:00am 15.3 13.4 15.3 100 0.0 WSW 19 30 10 16 997.9 997.1 20.6
20/06:30am 15.5 15.2 15.5 100 0.0 W 11 19 6 10 997.2 996.4 20.4
20/06:00am 15.7 15.9 15.7 100 0.0 WNW 9 19 5 10 996.8 996.0 20.0
20/05:30am 15.9 16.2 15.9 100 0.0 NW 9 15 5 8 995.7 995.0 19.2
20/05:00am 15.8 15.6 15.6 99 0.1 N 11 17 6 9 994.9 994.2 19.2
20/04:30am 15.2 13.7 15.2 100 0.0 NNE 17 24 9 13 994.0 993.2 19.2
20/04:00am 14.8 12.7 14.8 100 0.0 NE 19 26 10 14 994.4 993.6 19.2
20/03:30am 14.3 11.9 14.3 100 0.0 NE 20 30 11 16 995.4 994.7 18.6
20/03:09am 14.0 11.1 14.0 100 0.0 SE 22 33 12 18 996.1 995.4 17.8
20/03:00am 14.0 11.6 13.8 99 0.1 SE 19 30 10 16 998.4 997.6 16.6
20/02:30am 14.3 11.4 14.1 99 0.1 S 22 32 12 17 999.7 999.0 13.8
20/02:00am 14.6 11.9 14.6 100 0.0 S 22 30 12 16 1000.4 999.7 13.6
20/01:30am 14.5 12.6 14.3 99 0.1 SE 17 24 9 13 1000.6 999.9 13.6
20/01:00am 14.4 12.9 14.2 99 0.1 SE 15 20 8 11 1001.6 1000.9 13.4
20/12:30am 14.3 13.5 14.1 99 0.1 SW 11 19 6 10 1003.6 1002.8 12.6
20/12:00am 14.7 12.4 14.1 96 0.3 WSW 19 48 10 26 1003.8 1003.0 7.0
 
Date/Time
EDT
Temp
°C
App
Temp
°C
Dew
Point
°C
Rel
Hum
%
Delta-T
°C
Wind Press
QNH
hPa
Press
MSL
hPa
Rain since
9am
mm
Dir  Spd
km/h
Gust
km/h
Spd
kts
Gust
kts
19/11:45pm 16.3 12.8 12.3 77 2.2 WSW 22 39 12 21 1002.7 1001.9 3.2
19/11:37pm 18.4 17.9 12.8 70 3.2 S 7 15 4 8 1000.5 999.8 0.6
19/11:30pm 20.5 19.3 10.3 52 5.6 ENE 7 19 4 10 997.8 997.0 0.4
19/11:00pm 23.5 18.8 3.4 27 9.9 NE 17 24 9 13 997.5 996.7 0.0
19/10:30pm 22.5 18.4 4.5 31 8.9 NE 15 19 8 10 998.3 997.5 0.0
19/10:00pm 21.5 18.0 5.4 35 8.1 NE 13 15 7 8 999.3 998.6 0.0
19/09:30pm 21.9 18.4 5.3 34 8.3 NNE 13 15 7 8 999.9 999.2 0.0
19/09:00pm 23.7 19.6 4.6 29 9.6 NE 15 19 8 10 1000.6 999.9 0.0
19/08:30pm 25.2 20.9 5.4 28 10.2 NE 17 24 9 13 1001.1 1000.4 0.0
19/08:00pm 26.6 22.6 5.0 25 11.2 NE 15 20 8 11 1001.9 1001.2 0.0
19/07:30pm 26.4 22.3 4.2 24 11.2 ENE 15 22 8 12 1002.4 1001.6 0.0
19/07:00pm 27.4 25.3 5.6 25 11.4 E 6 15 3 8 1003.0 1002.2 0.0
19/06:30pm 26.4 24.9 6.9 29 10.4 SE 4 13 2 7 1003.6 1002.8 0.0
19/06:00pm 25.4 25.0 9.7 37 8.7 N 2 6 1 3 1004.2 1003.5 0.0
19/05:30pm 26.5 22.8 4.3 24 11.3 NW 13 20 7 11 1005.5 1004.8 0.0
19/05:00pm 27.8 24.7 1.3 18 12.9 NW 7 17 4 9 1005.9 1005.2 0.0
19/04:30pm 28.6 25.8 -0.5 15 13.8 NW 4 7 2 4 1006.2 1005.5 0.0
19/04:00pm 28.7 25.1 0.4 16 13.6 WNW 9 15 5 8 1006.6 1005.9 0.0
19/03:30pm 28.9 24.4 -0.3 15 13.9 NNW 13 24 7 13 1007.0 1006.3 0.0
19/03:00pm 28.4 25.3 -2.6 13 14.1 SSW 4 17 2 9 1007.5 1006.8 0.0

Other Formats:

Comma delimited format used in spreadsheet applications
http://www.bom.gov.au/fwo/IDV60801/IDV60801.95827.axf

JavaScript Object Notation format (JSON) in row-major order
http://www.bom.gov.au/fwo/IDV60801/IDV60801.95827.json